Pagrindinis puslapis
METAR-TAF:

METAR-TAF

Oro uostai :

Rynas, Nevada, Jungtinės Amerikos Valstijos

platuma: 39-40-05N, ilguma: 119-52-35W, Aukštis: 1539 m

Dabartinis oras

Ataskaita buvo paskelbta 50 minutes, ne 21:55 UTC
Vėjas 11 kt iš Rytų/Pietryčių
Temperatūra 6°C
Drėgmė 33%
Slėgis 1023 hPa
Matomumas: 16.1 km
Giedras dangus

METAR: KRTS 252155Z AUTO 11011KT 10SM CLR 06/M09 A3020 RMK AO2

Laikas: 14:45 (22:45 UTC)


TAF: trūkstamas

Orai ataskaitas ir orų prognozės (METAR, TAF).

turimą stotys yra geltonos ir raudonos taškus žemėlapyje.

Perkelti pele per norėdami pamatyti stoties vardą.

Tada spustelėkite, norėdami matyti oro stebėjimo ir prognozės.

Norėdami pakeisti žemėlapį: spustelėkite ant žalios mygtukų su juodo kryžiaus žemyn,; žalią mygtuką su brūkšneliu, jei norite nutolinti; arba žalių rodyklių gretimoms žemėlapius.


METAR-TAF: